Terminal Aerodrome Forecast
Issued by NWS Sioux Falls, SD

Home | Current Version | Previous Version | Text Only | Print | Product List | Glossary Off
Versions: 1 2 3 4 5 6 7 8 9 10 11 12 13 14

000
FTUS43 KFSD 210520
TAFSUX
TAF
KSUX 210520Z 2106/2206 09006KT P6SM FEW200
     FM210900 12008KT P6SM SCT120 BKN250
     FM211800 18013G20KT P6SM SCT150
     FM212200 18009KT P6SM SCT050
     FM220200 16006KT P6SM SCT060 BKN100
     FM220400 16005KT P6SM SCT100=

USA.gov is the U.S. government's official web portal to all federal, state and local government web resources and services.